createdAt,value
2018-05-13T00:01:04.827Z,18.30
2018-05-13T00:03:33.868Z,18.30
2018-05-13T00:06:02.772Z,18.20
2018-05-13T00:08:32.555Z,18.40
2018-05-13T00:11:01.426Z,18.40
2018-05-13T00:13:30.492Z,18.40
2018-05-13T00:15:59.592Z,18.50
2018-05-13T00:18:28.584Z,18.60
2018-05-13T00:20:57.485Z,18.50
2018-05-13T00:23:26.354Z,18.50
2018-05-13T00:25:55.344Z,18.30
2018-05-13T00:28:24.293Z,18.30
2018-05-13T00:30:53.156Z,18.40
2018-05-13T00:33:22.040Z,18.50
2018-05-13T00:35:50.904Z,18.30
2018-05-13T00:38:19.841Z,18.10
2018-05-13T00:40:48.709Z,18.10
2018-05-13T00:43:18.483Z,18.10
2018-05-13T00:45:48.380Z,18.00
2018-05-13T00:48:17.261Z,17.90
2018-05-13T00:50:46.160Z,18.00
2018-05-13T00:53:15.033Z,17.90
2018-05-13T00:55:44.081Z,17.90
2018-05-13T00:58:12.969Z,17.80
2018-05-13T01:00:42.026Z,17.80
2018-05-13T01:03:10.920Z,17.90
2018-05-13T01:05:40.063Z,17.80
2018-05-13T01:08:08.947Z,17.90
2018-05-13T01:10:37.905Z,17.90
2018-05-13T01:13:06.791Z,17.90
2018-05-13T01:15:35.693Z,17.80
2018-05-13T01:18:04.606Z,17.90
2018-05-13T01:20:34.228Z,18.10
2018-05-13T01:23:03.133Z,18.00
2018-05-13T01:25:32.092Z,18.10
2018-05-13T01:28:00.987Z,18.10
2018-05-13T01:30:30.028Z,18.20
2018-05-13T01:32:59.699Z,18.20
2018-05-13T01:35:28.732Z,18.20
2018-05-13T01:37:57.695Z,18.10
2018-05-13T01:40:26.715Z,18.10
2018-05-13T01:42:55.615Z,18.10
2018-05-13T01:45:24.501Z,17.90
2018-05-13T01:47:53.355Z,17.90
2018-05-13T01:50:22.523Z,18.00
2018-05-13T01:52:51.396Z,17.80
2018-05-13T01:55:20.455Z,17.90
2018-05-13T01:57:49.317Z,17.80
2018-05-13T02:00:18.185Z,17.90
2018-05-13T02:02:47.873Z,17.90
2018-05-13T02:05:16.884Z,17.90
2018-05-13T02:07:46.524Z,18.00
2018-05-13T02:10:15.384Z,18.00
2018-05-13T02:12:45.018Z,17.90
2018-05-13T02:15:13.897Z,17.90
2018-05-13T02:17:43.056Z,17.90
2018-05-13T02:20:11.956Z,17.90
2018-05-13T02:22:40.909Z,18.00
2018-05-13T02:25:09.824Z,18.10
2018-05-13T02:27:38.732Z,18.10
2018-05-13T02:30:07.720Z,18.10
2018-05-13T02:32:36.909Z,18.10
2018-05-13T02:35:05.764Z,18.10
2018-05-13T02:37:35.396Z,18.10
2018-05-13T02:40:04.552Z,18.00
2018-05-13T02:42:33.467Z,18.00
2018-05-13T02:45:02.407Z,17.90
2018-05-13T02:47:32.052Z,17.70
2018-05-13T02:50:00.903Z,17.70
2018-05-13T02:52:30.565Z,17.70
2018-05-13T02:54:59.487Z,17.70
2018-05-13T02:57:28.404Z,17.70
2018-05-13T02:59:58.141Z,17.40
2018-05-13T03:02:27.136Z,17.40
2018-05-13T03:04:56.096Z,17.60
2018-05-13T03:07:24.993Z,17.70
2018-05-13T03:09:54.613Z,17.70
2018-05-13T03:12:23.468Z,17.70
2018-05-13T03:14:52.549Z,17.80
2018-05-13T03:17:21.423Z,17.90
2018-05-13T03:19:50.288Z,17.70
2018-05-13T03:22:19.208Z,17.60
2018-05-13T03:24:48.084Z,17.60
2018-05-13T03:27:16.949Z,17.30
2018-05-13T03:29:45.868Z,17.30
2018-05-13T03:32:14.750Z,17.50
2018-05-13T03:34:43.668Z,17.50
2018-05-13T03:37:12.564Z,17.60
2018-05-13T03:39:41.680Z,17.80
2018-05-13T03:42:10.822Z,17.80
2018-05-13T03:44:39.767Z,17.90
2018-05-13T03:47:08.644Z,17.90
2018-05-13T03:49:37.500Z,18.10
2018-05-13T03:52:06.613Z,18.10
2018-05-13T03:54:35.503Z,18.30
2018-05-13T03:57:04.372Z,18.30
2018-05-13T03:59:33.240Z,18.20
2018-05-13T04:02:02.115Z,18.30
2018-05-13T04:04:31.802Z,18.50
2018-05-13T04:07:00.673Z,18.60
2018-05-13T04:09:47.087Z,18.70
2018-05-13T04:12:34.740Z,18.70
2018-05-13T04:15:25.017Z,18.70
2018-05-13T04:17:53.900Z,18.70
2018-05-13T04:20:22.939Z,18.90
2018-05-13T04:22:51.816Z,19.10
2018-05-13T04:25:21.524Z,19.20
2018-05-13T04:27:51.403Z,19.10
2018-05-13T04:30:20.532Z,19.10
2018-05-13T04:32:49.448Z,19.30
2018-05-13T04:35:18.352Z,19.40
2018-05-13T04:37:47.241Z,19.30
2018-05-13T04:40:16.413Z,19.60
2018-05-13T04:42:45.283Z,19.90
2018-05-13T04:45:14.914Z,19.70
2018-05-13T04:47:43.773Z,19.70
2018-05-13T04:50:12.716Z,20.00
2018-05-13T04:52:41.633Z,20.50
2018-05-13T04:55:10.564Z,20.80
2018-05-13T04:57:40.196Z,20.60
2018-05-13T05:00:09.156Z,20.60
2018-05-13T05:02:38.811Z,20.80
2018-05-13T05:05:07.685Z,20.80
2018-05-13T05:07:36.542Z,21.00
2018-05-13T05:10:06.234Z,21.40
2018-05-13T05:12:35.385Z,21.30
2018-05-13T05:15:04.312Z,21.20
2018-05-13T05:17:33.300Z,21.40
2018-05-13T05:20:02.173Z,21.80
2018-05-13T05:22:31.050Z,22.50
2018-05-13T05:25:00.243Z,22.40
2018-05-13T05:27:29.202Z,22.10
2018-05-13T05:29:58.853Z,22.50
2018-05-13T05:32:28.001Z,22.50
2018-05-13T05:34:57.641Z,22.80
2018-05-13T05:37:26.508Z,22.80
2018-05-13T05:39:56.367Z,22.80
2018-05-13T05:42:25.417Z,22.80
2018-05-13T05:44:54.297Z,22.90
2018-05-13T05:47:23.176Z,22.50
2018-05-13T05:49:52.048Z,22.30
2018-05-13T05:52:21.031Z,22.60
2018-05-13T05:54:49.929Z,23.10
2018-05-13T05:57:19.004Z,23.30
2018-05-13T05:59:47.856Z,24.10
2018-05-13T06:02:17.581Z,23.60
2018-05-13T06:04:46.446Z,23.60
2018-05-13T06:07:16.107Z,23.70
2018-05-13T06:09:45.018Z,23.70
2018-05-13T06:12:14.007Z,23.30
2018-05-13T06:14:42.835Z,23.20
2018-05-13T06:17:12.608Z,24.20
2018-05-13T06:19:41.590Z,24.20
2018-05-13T06:22:10.402Z,24.10
2018-05-13T06:24:40.103Z,24.10
2018-05-13T06:27:09.224Z,24.00
2018-05-13T06:29:38.112Z,23.80
2018-05-13T06:32:07.153Z,23.80
2018-05-13T06:34:36.153Z,24.00
2018-05-13T06:37:05.076Z,24.30
2018-05-13T06:39:34.027Z,24.20
2018-05-13T06:42:03.685Z,24.00
2018-05-13T06:44:32.593Z,24.00
2018-05-13T06:47:02.572Z,23.70
2018-05-13T06:49:31.448Z,23.70
2018-05-13T06:52:00.337Z,24.20
2018-05-13T06:54:29.410Z,23.70
2018-05-13T06:56:58.297Z,23.80
2018-05-13T06:59:27.224Z,24.10
2018-05-13T07:01:56.124Z,24.80
2018-05-13T07:04:25.080Z,24.40
2018-05-13T07:06:53.964Z,24.50
2018-05-13T07:09:22.845Z,24.70
2018-05-13T07:11:51.712Z,24.70
2018-05-13T07:14:25.423Z,24.30
2018-05-13T07:16:55.061Z,24.70
2018-05-13T07:19:24.212Z,24.70
2018-05-13T07:21:53.136Z,25.20
2018-05-13T07:24:22.013Z,25.00
2018-05-13T07:26:51.787Z,25.10
2018-05-13T07:29:20.759Z,25.10
2018-05-13T07:31:49.743Z,25.30
2018-05-13T07:34:18.627Z,25.80
2018-05-13T07:36:47.515Z,25.70
2018-05-13T07:39:16.456Z,26.20
2018-05-13T07:41:45.332Z,25.90
2018-05-13T07:44:14.235Z,25.90
2018-05-13T07:46:43.280Z,25.80
2018-05-13T07:49:12.244Z,26.10
2018-05-13T07:51:41.165Z,26.70
2018-05-13T07:54:10.052Z,26.80
2018-05-13T07:56:39.017Z,26.30
2018-05-13T07:59:08.833Z,25.80
2018-05-13T08:01:37.724Z,25.70
2018-05-13T08:04:06.792Z,26.60
2018-05-13T08:06:35.954Z,25.90
2018-05-13T08:09:05.702Z,25.50
2018-05-13T08:11:34.685Z,25.80
2018-05-13T08:14:03.780Z,26.60
2018-05-13T08:16:33.443Z,26.40
2018-05-13T08:19:02.393Z,26.40
2018-05-13T08:21:31.320Z,26.40
2018-05-13T08:24:00.235Z,26.50
2018-05-13T08:26:29.347Z,27.30
2018-05-13T08:28:58.342Z,27.40
2018-05-13T08:31:27.241Z,26.90
2018-05-13T08:33:56.978Z,26.60
2018-05-13T08:36:25.962Z,26.60
2018-05-13T08:38:54.892Z,26.60
2018-05-13T08:41:23.785Z,27.90
2018-05-13T08:43:52.918Z,27.40
2018-05-13T08:46:21.794Z,26.90
2018-05-13T08:48:50.704Z,27.50
2018-05-13T08:51:19.640Z,27.30
2018-05-13T08:53:48.564Z,26.70
2018-05-13T08:56:17.802Z,27.40
2018-05-13T08:58:47.023Z,27.00
2018-05-13T09:01:16.716Z,27.20
2018-05-13T09:03:46.398Z,27.30
2018-05-13T09:06:15.419Z,27.30
2018-05-13T09:08:44.359Z,27.60
2018-05-13T09:11:13.357Z,27.80
2018-05-13T09:13:42.323Z,28.10
2018-05-13T09:16:11.200Z,28.00
2018-05-13T09:18:40.107Z,27.50
2018-05-13T09:21:08.985Z,28.00
2018-05-13T09:23:37.965Z,28.00
2018-05-13T09:26:06.828Z,28.30
2018-05-13T09:28:35.699Z,28.60
2018-05-13T09:31:04.824Z,27.90
2018-05-13T09:33:33.840Z,27.40
2018-05-13T09:36:02.917Z,27.30
2018-05-13T09:38:31.795Z,27.50
2018-05-13T09:41:00.731Z,27.10
2018-05-13T09:43:29.824Z,27.30
2018-05-13T09:45:58.712Z,27.50
2018-05-13T09:48:27.718Z,27.90
2018-05-13T09:50:56.617Z,27.50
2018-05-13T09:53:25.501Z,27.50
2018-05-13T09:55:54.393Z,28.00
2018-05-13T09:58:23.279Z,27.60
2018-05-13T10:00:52.288Z,27.80
2018-05-13T10:03:21.212Z,28.10
2018-05-13T10:05:50.100Z,28.40
2018-05-13T10:08:19.075Z,27.60
2018-05-13T10:10:47.950Z,27.10
2018-05-13T10:13:17.031Z,26.90
2018-05-13T10:15:45.897Z,27.10
2018-05-13T10:18:14.814Z,27.50
2018-05-13T10:20:43.768Z,27.30
2018-05-13T10:23:13.542Z,27.30
2018-05-13T10:25:42.514Z,27.40
2018-05-13T10:28:11.438Z,27.40
2018-05-13T10:30:40.421Z,27.50
2018-05-13T10:33:09.340Z,28.00
2018-05-13T10:35:38.233Z,27.50
2018-05-13T10:38:07.949Z,27.40
2018-05-13T10:40:36.923Z,27.40
2018-05-13T10:43:06.224Z,27.20
2018-05-13T10:45:35.133Z,27.60
2018-05-13T10:48:04.852Z,27.50
2018-05-13T10:50:33.778Z,27.50
2018-05-13T10:53:02.804Z,27.40
2018-05-13T10:55:31.720Z,27.00
2018-05-13T10:58:01.468Z,26.90
2018-05-13T11:00:30.974Z,26.90
2018-05-13T11:03:00.171Z,27.10
2018-05-13T11:05:29.364Z,27.30
2018-05-13T11:07:58.951Z,27.10
2018-05-13T11:10:28.083Z,27.20
2018-05-13T11:12:57.075Z,26.80
2018-05-13T11:15:26.125Z,26.70
2018-05-13T11:17:55.811Z,26.50
2018-05-13T11:20:24.825Z,26.50
2018-05-13T11:22:54.478Z,26.40
2018-05-13T11:25:23.520Z,26.40
2018-05-13T11:27:53.173Z,26.00
2018-05-13T11:30:22.072Z,26.00
2018-05-13T11:32:50.993Z,25.80
2018-05-13T11:35:20.013Z,25.90
2018-05-13T11:37:49.668Z,25.90
2018-05-13T11:40:18.574Z,25.80
2018-05-13T11:42:47.476Z,25.70
2018-05-13T11:45:16.392Z,25.90
2018-05-13T11:47:46.076Z,25.70
2018-05-13T11:50:14.986Z,25.70
2018-05-13T11:52:44.683Z,25.60
2018-05-13T11:55:13.568Z,25.60
2018-05-13T11:57:42.624Z,25.70
2018-05-13T12:00:11.511Z,25.30
2018-05-13T12:02:40.509Z,25.30
2018-05-13T12:05:09.423Z,25.30
2018-05-13T12:07:38.329Z,25.60
2018-05-13T12:10:07.328Z,25.30
2018-05-13T12:12:36.251Z,25.40
2018-05-13T12:15:05.218Z,25.10
2018-05-13T12:17:34.092Z,25.20
2018-05-13T12:20:03.787Z,25.10
2018-05-13T12:22:32.696Z,25.10
2018-05-13T12:25:01.672Z,25.10
2018-05-13T12:27:30.916Z,25.10
2018-05-13T12:30:00.758Z,25.10
2018-05-13T12:32:29.847Z,25.10
2018-05-13T12:34:58.783Z,25.30
2018-05-13T12:37:27.870Z,25.30
2018-05-13T12:39:56.782Z,25.30
2018-05-13T12:42:25.688Z,25.30
2018-05-13T12:44:54.630Z,25.30
2018-05-13T12:47:23.512Z,25.10
2018-05-13T12:49:52.424Z,25.10
2018-05-13T12:52:21.493Z,25.20
2018-05-13T12:54:50.388Z,25.30
2018-05-13T12:57:19.292Z,25.10
2018-05-13T12:59:48.429Z,25.30
2018-05-13T13:02:18.089Z,25.30
2018-05-13T13:04:47.009Z,25.30
2018-05-13T13:07:15.959Z,25.40
2018-05-13T13:09:44.893Z,25.10
2018-05-13T13:12:14.648Z,25.30
2018-05-13T13:14:43.651Z,25.30
2018-05-13T13:17:12.761Z,25.30
2018-05-13T13:19:41.733Z,25.20
2018-05-13T13:22:10.651Z,25.40
2018-05-13T13:24:39.548Z,25.40
2018-05-13T13:27:08.472Z,25.30
2018-05-13T13:29:38.171Z,25.30
2018-05-13T13:32:07.079Z,25.30
2018-05-13T13:34:36.744Z,25.50
2018-05-13T13:37:05.683Z,25.50
2018-05-13T13:39:34.622Z,25.20
2018-05-13T13:42:03.556Z,25.10
2018-05-13T13:44:33.371Z,25.10
2018-05-13T13:47:03.076Z,25.10
2018-05-13T13:49:32.984Z,25.20
2018-05-13T13:52:01.956Z,25.20
2018-05-13T13:54:31.202Z,25.30
2018-05-13T13:57:00.121Z,25.20
2018-05-13T13:59:29.272Z,25.30
2018-05-13T14:01:58.520Z,25.10
2018-05-13T14:04:27.444Z,25.20
2018-05-13T14:06:56.496Z,25.20
2018-05-13T14:09:25.547Z,25.20
2018-05-13T14:11:55.501Z,25.30
2018-05-13T14:14:24.366Z,25.30
2018-05-13T14:16:54.067Z,25.20
2018-05-13T14:19:23.813Z,25.20
2018-05-13T14:21:52.739Z,25.20
2018-05-13T14:24:21.732Z,25.10
2018-05-13T14:26:50.778Z,25.30
2018-05-13T14:29:19.889Z,25.30
2018-05-13T14:31:48.807Z,25.10
2018-05-13T14:34:17.703Z,25.10
2018-05-13T14:36:48.151Z,25.10
2018-05-13T14:39:17.848Z,25.10
2018-05-13T14:41:46.752Z,25.00
2018-05-13T14:44:16.461Z,25.00
2018-05-13T14:46:46.269Z,24.90
2018-05-13T14:49:16.048Z,25.10
2018-05-13T14:51:44.965Z,25.10
2018-05-13T14:54:14.779Z,25.10
2018-05-13T14:56:43.725Z,25.00
2018-05-13T14:59:12.683Z,25.10
2018-05-13T15:01:42.380Z,25.10
2018-05-13T15:04:11.276Z,25.10
2018-05-13T15:06:41.074Z,25.20
2018-05-13T15:09:10.128Z,25.10
2018-05-13T15:11:39.052Z,25.10
2018-05-13T15:14:07.976Z,25.10
2018-05-13T15:16:37.750Z,25.20
2018-05-13T15:19:08.052Z,25.10
2018-05-13T15:21:36.957Z,25.10
2018-05-13T15:24:06.016Z,25.10
2018-05-13T15:26:35.219Z,25.10
2018-05-13T15:29:04.247Z,25.10
2018-05-13T15:31:33.090Z,25.10
2018-05-13T15:34:02.048Z,25.10
2018-05-13T15:36:31.036Z,25.10
2018-05-13T15:39:00.358Z,25.00
2018-05-13T15:41:30.013Z,25.00
2018-05-13T15:43:58.905Z,24.90
2018-05-13T15:46:27.922Z,24.90
2018-05-13T15:48:57.088Z,25.00
2018-05-13T15:51:26.393Z,24.90
2018-05-13T15:53:55.511Z,24.90
2018-05-13T15:56:24.583Z,24.90
2018-05-13T15:58:53.658Z,24.90
2018-05-13T16:01:22.567Z,24.80
2018-05-13T16:03:51.531Z,24.80
2018-05-13T16:06:20.535Z,24.90
2018-05-13T16:08:49.432Z,24.80
2018-05-13T16:11:18.577Z,24.80
2018-05-13T16:13:47.516Z,24.90
2018-05-13T16:16:16.422Z,24.90
2018-05-13T16:18:45.603Z,24.90
2018-05-13T16:21:14.417Z,24.80
2018-05-13T16:23:43.351Z,24.80
2018-05-13T16:26:13.165Z,24.70
2018-05-13T16:28:42.814Z,24.70
2018-05-13T16:31:12.453Z,24.70
2018-05-13T16:33:42.907Z,24.70
2018-05-13T16:36:12.591Z,24.70
2018-05-13T16:38:41.536Z,24.70
2018-05-13T16:41:10.507Z,24.70
2018-05-13T16:43:39.416Z,24.70
2018-05-13T16:46:08.292Z,24.60
2018-05-13T16:48:37.208Z,24.60
2018-05-13T16:51:06.307Z,24.60
2018-05-13T16:53:35.229Z,24.50
2018-05-13T16:56:04.243Z,24.50
2018-05-13T16:58:34.155Z,24.40
2018-05-13T17:01:03.054Z,24.40
2018-05-13T17:03:32.897Z,24.40
2018-05-13T17:06:04.729Z,24.30
2018-05-13T17:08:34.741Z,24.30
2018-05-13T17:11:04.470Z,24.30
2018-05-13T17:13:33.387Z,24.20
2018-05-13T17:16:02.532Z,24.20
2018-05-13T17:18:31.464Z,24.20
2018-05-13T17:21:00.426Z,24.20
2018-05-13T17:23:30.107Z,24.10
2018-05-13T17:25:59.022Z,24.10
2018-05-13T17:28:28.731Z,24.00
2018-05-13T17:30:57.732Z,24.00
2018-05-13T17:33:27.564Z,23.90
2018-05-13T17:35:56.450Z,23.90
2018-05-13T17:38:25.477Z,23.90
2018-05-13T17:40:54.342Z,23.90
2018-05-13T17:43:23.256Z,23.90
2018-05-13T17:45:52.232Z,23.80
2018-05-13T17:48:21.293Z,23.80
2018-05-13T17:50:50.389Z,23.80
2018-05-13T17:53:20.077Z,23.70
2018-05-13T17:55:49.225Z,23.70
2018-05-13T17:58:18.137Z,23.70
2018-05-13T18:00:47.135Z,23.60
2018-05-13T18:03:16.228Z,23.60
2018-05-13T18:05:45.128Z,23.50
2018-05-13T18:08:15.321Z,23.50
2018-05-13T18:10:44.351Z,23.40
2018-05-13T18:13:13.244Z,23.40
2018-05-13T18:15:42.264Z,23.30
2018-05-13T18:18:12.142Z,23.30
2018-05-13T18:20:41.027Z,23.20
2018-05-13T18:23:10.041Z,23.10
2018-05-13T18:25:39.031Z,23.10
2018-05-13T18:28:08.170Z,23.30
2018-05-13T18:30:37.143Z,23.30
2018-05-13T18:33:07.154Z,23.20
2018-05-13T18:35:36.833Z,23.30
2018-05-13T18:38:05.784Z,23.30
2018-05-13T18:40:34.992Z,23.30
2018-05-13T18:43:04.025Z,23.20
2018-05-13T18:45:33.032Z,23.20
2018-05-13T18:48:02.084Z,23.10
2018-05-13T18:50:31.025Z,23.00
2018-05-13T18:53:00.095Z,22.80
2018-05-13T18:55:29.228Z,22.90
2018-05-13T18:57:58.126Z,22.80
2018-05-13T19:00:27.035Z,22.80
2018-05-13T19:02:55.981Z,22.80
2018-05-13T19:05:25.156Z,22.70
2018-05-13T19:07:54.133Z,22.80
2018-05-13T19:10:23.336Z,22.80
2018-05-13T19:12:52.265Z,22.80
2018-05-13T19:15:22.253Z,22.90
2018-05-13T19:17:51.476Z,22.90
2018-05-13T19:20:20.417Z,22.80
2018-05-13T19:22:49.346Z,22.80
2018-05-13T19:25:18.757Z,22.70
2018-05-13T19:27:47.737Z,22.70
2018-05-13T19:30:16.681Z,22.40
2018-05-13T19:32:45.609Z,22.50
2018-05-13T19:35:14.536Z,22.40
2018-05-13T19:37:44.276Z,22.30
2018-05-13T19:40:13.340Z,22.30
2018-05-13T19:42:42.389Z,22.30
2018-05-13T19:45:11.513Z,22.20
2018-05-13T19:47:40.582Z,22.30
2018-05-13T19:50:09.472Z,22.20
2018-05-13T19:52:38.435Z,22.10
2018-05-13T19:55:07.397Z,22.00
2018-05-13T19:57:37.095Z,22.00
2018-05-13T20:00:06.076Z,22.00
2018-05-13T20:02:35.054Z,22.00
2018-05-13T20:05:04.621Z,22.00
2018-05-13T20:07:33.583Z,21.80
2018-05-13T20:10:02.654Z,21.80
2018-05-13T20:12:31.942Z,21.90
2018-05-13T20:15:00.997Z,21.80
2018-05-13T20:17:29.941Z,21.70
2018-05-13T20:19:58.841Z,21.60
2018-05-13T20:22:27.789Z,21.60
2018-05-13T20:24:56.716Z,21.40
2018-05-13T20:27:25.721Z,21.30
2018-05-13T20:29:54.681Z,21.30
2018-05-13T20:32:23.721Z,21.30
2018-05-13T20:34:53.495Z,21.00
2018-05-13T20:37:22.804Z,20.90
2018-05-13T20:39:51.933Z,20.80
2018-05-13T20:42:21.685Z,20.90
2018-05-13T20:44:50.846Z,20.90
2018-05-13T20:47:19.963Z,20.90
2018-05-13T20:49:49.199Z,20.90
2018-05-13T20:52:18.161Z,20.90
2018-05-13T20:54:47.438Z,20.80
2018-05-13T20:57:17.452Z,20.40
2018-05-13T20:59:47.594Z,20.30
2018-05-13T21:02:17.413Z,20.40
2018-05-13T21:04:46.480Z,20.40
2018-05-13T21:07:15.854Z,20.60
2018-05-13T21:09:44.838Z,20.50
2018-05-13T21:12:14.075Z,20.50
2018-05-13T21:14:43.252Z,20.20
2018-05-13T21:17:12.248Z,20.10
2018-05-13T21:19:41.264Z,20.10
2018-05-13T21:22:10.191Z,20.10
2018-05-13T21:24:39.062Z,20.00
2018-05-13T21:27:08.261Z,20.10
2018-05-13T21:29:37.302Z,20.20
2018-05-13T21:32:06.643Z,19.90
2018-05-13T21:34:36.013Z,19.90
2018-05-13T21:37:05.702Z,19.80
2018-05-13T21:39:35.137Z,19.90
2018-05-13T21:42:04.823Z,20.00
2018-05-13T21:44:33.784Z,20.00
2018-05-13T21:47:02.998Z,20.10
2018-05-13T21:49:32.012Z,20.00
2018-05-13T21:52:01.232Z,19.80
2018-05-13T21:54:30.649Z,19.90
2018-05-13T21:57:00.687Z,19.90
2018-05-13T21:59:29.849Z,19.90
2018-05-13T22:02:00.495Z,19.70
2018-05-13T22:04:29.408Z,19.70
2018-05-13T22:06:58.619Z,19.70
2018-05-13T22:09:28.080Z,19.60
2018-05-13T22:11:57.115Z,19.60
2018-05-13T22:14:26.055Z,19.70
2018-05-13T22:16:55.380Z,19.70
2018-05-13T22:19:24.310Z,19.50
2018-05-13T22:21:53.210Z,19.50
2018-05-13T22:24:22.277Z,19.50
2018-05-13T22:26:51.186Z,19.50
2018-05-13T22:29:20.709Z,19.40
2018-05-13T22:31:50.336Z,19.50
2018-05-13T22:34:20.184Z,19.40
2018-05-13T22:36:49.116Z,19.40
2018-05-13T22:39:19.504Z,19.30
2018-05-13T22:41:48.408Z,19.30
2018-05-13T22:44:17.273Z,19.00
2018-05-13T22:46:46.147Z,19.10
2018-05-13T22:49:15.070Z,19.10
2018-05-13T22:51:43.964Z,19.30
2018-05-13T22:54:12.917Z,19.20
2018-05-13T22:56:41.836Z,19.20
2018-05-13T22:59:10.785Z,19.00
2018-05-13T23:01:40.480Z,18.70
2018-05-13T23:04:09.367Z,18.70
2018-05-13T23:06:38.228Z,18.80
2018-05-13T23:09:07.111Z,18.90
2018-05-13T23:11:35.995Z,18.80
2018-05-13T23:14:04.883Z,18.80
2018-05-13T23:16:33.948Z,18.70
2018-05-13T23:19:03.764Z,18.60
2018-05-13T23:21:33.404Z,18.60
2018-05-13T23:24:02.357Z,18.50
2018-05-13T23:26:32.109Z,18.60
2018-05-13T23:29:01.020Z,18.50
2018-05-13T23:31:29.887Z,18.40
2018-05-13T23:33:58.880Z,18.50
2018-05-13T23:36:27.833Z,18.50
2018-05-13T23:38:57.680Z,18.20
2018-05-13T23:41:26.808Z,18.20
2018-05-13T23:43:55.818Z,18.30
2018-05-13T23:46:24.691Z,18.30
2018-05-13T23:48:53.680Z,18.20
2018-05-13T23:51:22.691Z,18.20
2018-05-13T23:53:51.736Z,18.20
2018-05-13T23:56:20.680Z,18.10
2018-05-13T23:58:49.831Z,18.10
